createdAt,value
2019-01-24T00:02:18.964Z,100432.72
2019-01-24T00:04:50.402Z,100428.64
2019-01-24T00:07:21.758Z,100421.84
2019-01-24T00:09:53.021Z,100430.06
2019-01-24T00:12:24.297Z,100432.78
2019-01-24T00:14:55.726Z,100438.84
2019-01-24T00:17:27.243Z,100433.84
2019-01-24T00:19:58.430Z,100431.81
2019-01-24T00:22:29.752Z,100432.33
2019-01-24T00:25:01.998Z,100436.73
2019-01-24T00:27:33.296Z,100439.81
2019-01-24T00:30:05.559Z,100444.22
2019-01-24T00:32:37.368Z,100447.67
2019-01-24T00:35:08.984Z,100452.95
2019-01-24T00:37:40.215Z,100452.22
2019-01-24T00:40:13.446Z,100456.07
2019-01-24T00:42:44.716Z,100456.22
2019-01-24T00:45:16.145Z,100454.56
2019-01-24T00:47:47.535Z,100457.13
2019-01-24T00:50:18.902Z,100455.21
2019-01-24T00:52:50.250Z,100454.84
2019-01-24T00:55:21.573Z,100456.13
2019-01-24T00:57:52.813Z,100460.91
2019-01-24T01:00:25.935Z,100461.27
2019-01-24T01:02:57.183Z,100460.53
2019-01-24T01:05:28.604Z,100459.76
2019-01-24T01:07:59.811Z,100469.45
2019-01-24T01:10:31.037Z,100467.62
2019-01-24T01:13:02.391Z,100475.11
2019-01-24T01:15:33.670Z,100474.73
2019-01-24T01:18:05.137Z,100477.08
2019-01-24T01:20:36.374Z,100475.80
2019-01-24T01:23:07.632Z,100467.67
2019-01-24T01:25:38.904Z,100477.73
2019-01-24T01:28:10.122Z,100472.22
2019-01-24T01:30:41.415Z,100470.70
2019-01-24T01:33:12.772Z,100477.14
2019-01-24T01:35:44.035Z,100474.71
2019-01-24T01:38:15.234Z,100485.14
2019-01-24T01:40:46.685Z,100480.91
2019-01-24T01:43:18.339Z,100477.97
2019-01-24T01:45:49.577Z,100478.11
2019-01-24T01:48:20.948Z,100483.95
2019-01-24T01:50:52.283Z,100476.97
2019-01-24T01:53:23.601Z,100489.98
2019-01-24T01:55:54.851Z,100487.80
2019-01-24T01:58:26.133Z,100478.80
2019-01-24T02:00:57.349Z,100484.46
2019-01-24T02:03:28.583Z,100480.38
2019-01-24T02:06:01.886Z,100487.55
2019-01-24T02:08:33.147Z,100477.80
2019-01-24T02:11:04.322Z,100479.45
2019-01-24T02:13:35.547Z,100483.45
2019-01-24T02:16:06.995Z,100481.06
2019-01-24T02:18:38.309Z,100481.20
2019-01-24T02:21:09.591Z,100485.06
2019-01-24T02:23:41.807Z,100489.98
2019-01-24T02:26:13.169Z,100494.34
2019-01-24T02:28:44.488Z,100495.78
2019-01-24T02:31:15.689Z,100497.47
2019-01-24T02:33:46.937Z,100496.19
2019-01-24T02:36:18.308Z,100500.55
2019-01-24T02:38:49.603Z,100494.63
2019-01-24T02:41:21.029Z,100495.55
2019-01-24T02:43:52.266Z,100491.46
2019-01-24T02:46:23.433Z,100493.44
2019-01-24T02:48:54.749Z,100496.02
2019-01-24T02:51:26.082Z,100487.88
2019-01-24T02:53:57.371Z,100488.94
2019-01-24T02:56:28.560Z,100490.37
2019-01-24T02:58:59.793Z,100491.42
2019-01-24T03:01:31.272Z,100491.05
2019-01-24T03:04:02.684Z,100489.40
2019-01-24T03:06:34.066Z,100487.74
2019-01-24T03:09:07.553Z,100487.34
2019-01-24T03:11:39.082Z,100486.83
2019-01-24T03:14:10.346Z,100489.77
2019-01-24T03:16:41.571Z,100493.03
2019-01-24T03:19:12.931Z,100491.74
2019-01-24T03:21:44.174Z,100493.03
2019-01-24T03:24:15.445Z,100486.97
2019-01-24T03:26:46.881Z,100491.74
2019-01-24T03:29:18.592Z,100496.48
2019-01-24T03:31:50.256Z,100499.23
2019-01-24T03:34:21.770Z,100498.45
2019-01-24T03:36:53.203Z,100503.98
2019-01-24T03:39:24.426Z,100508.02
2019-01-24T03:41:55.654Z,100499.88
2019-01-24T03:44:27.101Z,100506.46
2019-01-24T03:46:58.298Z,100505.72
2019-01-24T03:49:29.522Z,100505.48
2019-01-24T03:52:00.771Z,100520.70
2019-01-24T03:54:32.009Z,100517.72
2019-01-24T03:57:03.847Z,100516.61
2019-01-24T03:59:35.290Z,100522.78
2019-01-24T04:02:06.815Z,100518.19
2019-01-24T04:04:38.139Z,100521.67
2019-01-24T04:07:09.420Z,100517.81
2019-01-24T04:09:40.645Z,100520.16
2019-01-24T04:12:11.976Z,100518.46
2019-01-24T04:14:43.190Z,100521.17
2019-01-24T04:17:14.378Z,100517.86
2019-01-24T04:19:46.680Z,100524.44
2019-01-24T04:22:18.072Z,100515.05
2019-01-24T04:24:49.955Z,100521.63
2019-01-24T04:27:21.520Z,100520.86
2019-01-24T04:29:52.957Z,100525.41
2019-01-24T04:32:25.123Z,100526.31
2019-01-24T04:34:56.497Z,100528.12
2019-01-24T04:37:28.804Z,100527.75
2019-01-24T04:39:59.969Z,100525.31
2019-01-24T04:42:31.277Z,100527.89
2019-01-24T04:45:02.529Z,100530.23
2019-01-24T04:47:33.692Z,100534.60
2019-01-24T04:50:05.782Z,100533.86
2019-01-24T04:52:37.111Z,100523.70
2019-01-24T04:55:09.928Z,100535.06
2019-01-24T04:57:41.117Z,100536.86
2019-01-24T05:00:21.649Z,100535.73
2019-01-24T05:02:52.796Z,100539.20
2019-01-24T05:05:27.982Z,100538.31
2019-01-24T05:07:57.236Z,100537.17
2019-01-24T05:10:28.482Z,100538.97
2019-01-24T05:13:00.013Z,100542.09
2019-01-24T05:15:31.271Z,100544.26
2019-01-24T05:18:02.567Z,100554.33
2019-01-24T05:20:33.868Z,100558.73
2019-01-24T05:23:05.184Z,100563.48
2019-01-24T05:25:36.422Z,100564.40
2019-01-24T05:28:07.641Z,100564.54
2019-01-24T05:30:39.005Z,100568.03
2019-01-24T05:33:10.263Z,100573.73
2019-01-24T05:35:41.420Z,100572.03
2019-01-24T05:38:12.638Z,100578.62
2019-01-24T05:40:43.948Z,100576.45
2019-01-24T05:43:15.254Z,100578.62
2019-01-24T05:45:46.540Z,100582.11
2019-01-24T05:48:17.727Z,100580.59
2019-01-24T05:50:48.981Z,100581.51
2019-01-24T05:53:20.212Z,100586.11
2019-01-24T05:55:51.535Z,100587.41
2019-01-24T05:58:22.735Z,100590.52
2019-01-24T06:00:53.950Z,100593.61
2019-01-24T06:03:25.149Z,100584.97
2019-01-24T06:05:56.408Z,100583.67
2019-01-24T06:08:27.735Z,100594.16
2019-01-24T06:10:59.053Z,100594.67
2019-01-24T06:13:30.247Z,100595.95
2019-01-24T06:16:01.622Z,100597.61
2019-01-24T06:18:33.557Z,100607.31
2019-01-24T06:21:04.927Z,100602.67
2019-01-24T06:23:36.234Z,100598.07
2019-01-24T06:26:07.519Z,100604.14
2019-01-24T06:28:38.897Z,100605.94
2019-01-24T06:31:10.072Z,100608.66
2019-01-24T06:33:41.524Z,100615.09
2019-01-24T06:36:12.769Z,100613.44
2019-01-24T06:38:44.901Z,100607.14
2019-01-24T06:41:16.242Z,100608.42
2019-01-24T06:43:47.467Z,100606.39
2019-01-24T06:46:18.700Z,100611.55
2019-01-24T06:48:49.910Z,100613.34
2019-01-24T06:51:21.223Z,100608.73
2019-01-24T06:53:52.615Z,100611.83
2019-01-24T06:56:23.845Z,100615.83
2019-01-24T06:58:55.182Z,100617.89
2019-01-24T07:01:26.350Z,100617.89
2019-01-24T07:03:57.624Z,100622.64
2019-01-24T07:06:28.872Z,100619.70
2019-01-24T07:09:00.215Z,100629.27
2019-01-24T07:11:37.747Z,100628.86
2019-01-24T07:14:10.410Z,100630.69
2019-01-24T07:16:43.251Z,100636.35
2019-01-24T07:19:14.594Z,100629.54
2019-01-24T07:21:45.923Z,100636.13
2019-01-24T07:24:17.192Z,100642.34
2019-01-24T07:26:48.468Z,100639.75
2019-01-24T07:29:19.862Z,100645.05
2019-01-24T07:31:51.189Z,100649.29
2019-01-24T07:34:22.405Z,100657.56
2019-01-24T07:36:53.736Z,100656.79
2019-01-24T07:39:24.933Z,100659.37
2019-01-24T07:41:56.204Z,100663.64
2019-01-24T07:44:27.438Z,100675.01
2019-01-24T07:46:58.846Z,100675.89
2019-01-24T07:49:30.080Z,100679.02
2019-01-24T07:52:01.731Z,100675.66
2019-01-24T07:54:32.945Z,100674.92
2019-01-24T07:57:04.188Z,100672.84
2019-01-24T07:59:35.871Z,100676.48
2019-01-24T08:02:07.155Z,100685.65
2019-01-24T08:04:38.427Z,100688.37
2019-01-24T08:07:09.738Z,100689.28
2019-01-24T08:09:41.183Z,100700.52
2019-01-24T08:12:13.427Z,100697.16
2019-01-24T08:14:46.693Z,100695.63
2019-01-24T08:17:21.402Z,100695.63
2019-01-24T08:19:54.382Z,100701.48
2019-01-24T08:22:29.791Z,100699.78
2019-01-24T08:25:01.278Z,100702.91
2019-01-24T08:27:33.366Z,100704.34
2019-01-24T08:30:08.711Z,100707.59
2019-01-24T08:32:41.974Z,100704.62
2019-01-24T08:35:17.100Z,100696.64
2019-01-24T08:37:49.963Z,100692.55
2019-01-24T08:40:21.548Z,100694.52
2019-01-24T08:42:53.047Z,100698.02
2019-01-24T08:45:24.372Z,100700.73
2019-01-24T08:47:55.632Z,100701.25
2019-01-24T08:50:28.232Z,100702.53
2019-01-24T08:52:59.855Z,100702.30
2019-01-24T08:55:39.263Z,100704.65
2019-01-24T08:58:10.950Z,100704.65
2019-01-24T09:00:42.303Z,100703.88
2019-01-24T09:03:13.476Z,100707.13
2019-01-24T09:05:44.697Z,100704.69
2019-01-24T09:08:15.991Z,100705.61
2019-01-24T09:10:47.267Z,100701.51
2019-01-24T09:13:18.470Z,100705.14
2019-01-24T09:15:49.794Z,100708.23
2019-01-24T09:18:21.303Z,100715.88
2019-01-24T09:20:52.544Z,100716.42
2019-01-24T09:23:23.863Z,100718.77
2019-01-24T09:25:55.134Z,100726.41
2019-01-24T09:28:26.451Z,100729.50
2019-01-24T09:30:58.056Z,100725.77
2019-01-24T09:33:29.448Z,100725.53
2019-01-24T09:36:03.430Z,100729.72
2019-01-24T09:38:34.777Z,100734.38
2019-01-24T09:41:06.199Z,100737.87
2019-01-24T09:43:37.529Z,100738.14
2019-01-24T09:46:08.821Z,100738.83
2019-01-24T09:48:40.179Z,100749.97
2019-01-24T09:51:11.346Z,100742.50
2019-01-24T09:53:42.785Z,100738.16
2019-01-24T09:56:14.233Z,100736.02
2019-01-24T09:58:45.616Z,100739.02
2019-01-24T10:01:17.371Z,100742.92
2019-01-24T10:03:48.922Z,100737.89
2019-01-24T10:06:20.354Z,100735.61
2019-01-24T10:08:51.561Z,100741.97
2019-01-24T10:11:23.615Z,100743.39
2019-01-24T10:13:56.423Z,100749.84
2019-01-24T10:16:27.778Z,100751.38
2019-01-24T10:18:59.046Z,100752.80
2019-01-24T10:21:30.205Z,100754.64
2019-01-24T10:24:01.524Z,100750.91
2019-01-24T10:26:32.802Z,100751.04
2019-01-24T10:29:04.019Z,100756.88
2019-01-24T10:31:35.328Z,100755.35
2019-01-24T10:34:06.534Z,100755.73
2019-01-24T10:36:42.977Z,100758.08
2019-01-24T10:39:11.155Z,100760.41
2019-01-24T10:41:42.399Z,100764.05
2019-01-24T10:44:13.741Z,100758.89
2019-01-24T10:46:45.088Z,100758.89
2019-01-24T10:49:16.299Z,100766.77
2019-01-24T10:51:47.700Z,100768.44
2019-01-24T10:54:18.907Z,100765.24
2019-01-24T10:56:50.156Z,100769.63
2019-01-24T10:59:21.517Z,100765.75
2019-01-24T11:01:55.465Z,100762.79
2019-01-24T11:04:25.932Z,100764.36
2019-01-24T11:06:57.240Z,100758.81
2019-01-24T11:09:28.540Z,100757.79
2019-01-24T11:11:59.938Z,100758.84
2019-01-24T11:14:31.244Z,100753.30
2019-01-24T11:17:02.943Z,100750.48
2019-01-24T11:19:34.226Z,100748.16
2019-01-24T11:22:05.770Z,100742.14
2019-01-24T11:24:37.091Z,100745.50
2019-01-24T11:27:08.315Z,100745.25
2019-01-24T11:29:39.623Z,100754.97
2019-01-24T11:32:10.958Z,100748.78
2019-01-24T11:34:42.374Z,100742.99
2019-01-24T11:37:13.629Z,100753.22
2019-01-24T11:39:44.942Z,100751.02
2019-01-24T11:42:16.229Z,100747.27
2019-01-24T11:44:47.907Z,100748.72
2019-01-24T11:47:19.273Z,100746.78
2019-01-24T11:49:51.688Z,100750.79
2019-01-24T11:52:22.893Z,100752.63
2019-01-24T11:54:54.236Z,100745.78
2019-01-24T11:57:25.467Z,100747.08
2019-01-24T11:59:56.758Z,100745.37
2019-01-24T12:02:28.108Z,100749.42
2019-01-24T12:04:59.404Z,100746.83
2019-01-24T12:07:30.626Z,100743.09
2019-01-24T12:10:01.868Z,100746.55
2019-01-24T12:12:33.252Z,100744.76
2019-01-24T12:15:04.486Z,100747.72
2019-01-24T12:17:35.833Z,100740.20
2019-01-24T12:20:10.336Z,100743.20
2019-01-24T12:22:41.650Z,100746.16
2019-01-24T12:25:12.925Z,100739.57
2019-01-24T12:27:44.146Z,100740.73
2019-01-24T12:30:27.452Z,100741.10
2019-01-24T12:32:59.230Z,100737.98
2019-01-24T12:35:30.646Z,100740.56
2019-01-24T12:38:02.025Z,100732.30
2019-01-24T12:40:33.348Z,100732.30
2019-01-24T12:43:05.397Z,100736.31
2019-01-24T12:45:37.655Z,100744.06
2019-01-24T12:48:08.888Z,100733.72
2019-01-24T12:50:40.071Z,100730.63
2019-01-24T12:53:11.217Z,100731.01
2019-01-24T12:55:42.482Z,100737.47
2019-01-24T12:58:13.781Z,100740.80
2019-01-24T13:00:45.041Z,100738.63
2019-01-24T13:03:16.256Z,100730.88
2019-01-24T13:05:47.469Z,100734.88
2019-01-24T13:08:18.727Z,100731.01
2019-01-24T13:10:50.202Z,100735.39
2019-01-24T13:13:21.784Z,100731.38
2019-01-24T13:15:53.137Z,100730.22
2019-01-24T13:18:24.499Z,100729.84
2019-01-24T13:20:55.838Z,100728.55
2019-01-24T13:23:28.266Z,100728.05
2019-01-24T13:25:59.606Z,100732.30
2019-01-24T13:28:30.868Z,100732.30
2019-01-24T13:31:02.381Z,100733.05
2019-01-24T13:33:33.695Z,100735.63
2019-01-24T13:36:05.007Z,100742.09
2019-01-24T13:38:36.785Z,100739.14
2019-01-24T13:41:08.075Z,100740.80
2019-01-24T13:43:39.622Z,100744.95
2019-01-24T13:46:11.110Z,100745.70
2019-01-24T13:48:42.513Z,100737.45
2019-01-24T13:51:14.009Z,100736.91
2019-01-24T13:53:45.458Z,100740.27
2019-01-24T13:56:16.860Z,100747.48
2019-01-24T13:58:48.257Z,100739.47
2019-01-24T14:01:19.502Z,100748.52
2019-01-24T14:04:15.104Z,100741.92
2019-01-24T14:06:46.426Z,100750.83
2019-01-24T14:09:17.664Z,100749.78
2019-01-24T14:11:49.144Z,100755.33
2019-01-24T14:14:23.680Z,100754.14
2019-01-24T14:16:55.027Z,100750.88
2019-01-24T14:19:26.365Z,100754.24
2019-01-24T14:21:57.731Z,100754.86
2019-01-24T14:24:30.206Z,100763.91
2019-01-24T14:27:02.871Z,100765.98
2019-01-24T14:29:34.285Z,100762.72
2019-01-24T14:32:14.572Z,100768.26
2019-01-24T14:34:46.957Z,100768.67
2019-01-24T14:37:18.382Z,100769.83
2019-01-24T14:39:49.778Z,100769.83
2019-01-24T14:42:21.113Z,100773.53
2019-01-24T14:44:52.478Z,100769.52
2019-01-24T14:47:23.913Z,100786.31
2019-01-24T14:49:55.087Z,100788.76
2019-01-24T14:52:26.543Z,100800.25
2019-01-24T14:54:57.889Z,100806.40
2019-01-24T14:57:29.139Z,100802.63
2019-01-24T15:00:01.321Z,100806.22
2019-01-24T15:02:36.563Z,100813.05
2019-01-24T15:05:09.533Z,100817.16
2019-01-24T15:07:47.068Z,100821.45
2019-01-24T15:10:16.282Z,100820.26
2019-01-24T15:12:47.484Z,100829.13
2019-01-24T15:15:19.105Z,100822.39
2019-01-24T15:17:51.640Z,100827.05
2019-01-24T15:20:22.838Z,100833.19
2019-01-24T15:22:54.111Z,100824.94
2019-01-24T15:25:25.291Z,100827.75
2019-01-24T15:27:56.616Z,100822.08
2019-01-24T15:30:28.974Z,100827.98
2019-01-24T15:33:00.178Z,100833.01
2019-01-24T15:35:31.511Z,100826.42
2019-01-24T15:38:02.838Z,100832.47
2019-01-24T15:40:34.074Z,100826.28
2019-01-24T15:43:05.795Z,100833.71
2019-01-24T15:45:39.781Z,100827.13
2019-01-24T15:48:11.541Z,100826.06
2019-01-24T15:50:43.091Z,100832.89
2019-01-24T15:53:14.398Z,100826.44
2019-01-24T15:55:45.908Z,100828.73
2019-01-24T15:58:17.243Z,100835.19
2019-01-24T16:00:50.112Z,100833.76
2019-01-24T16:03:21.524Z,100844.83
2019-01-24T16:05:52.894Z,100837.49
2019-01-24T16:08:26.019Z,100840.30
2019-01-24T16:10:59.650Z,100849.71
2019-01-24T16:13:31.956Z,100847.73
2019-01-24T16:16:06.488Z,100845.94
2019-01-24T16:18:40.641Z,100853.67
2019-01-24T16:21:15.091Z,100854.45
2019-01-24T16:23:46.514Z,100851.88
2019-01-24T16:26:17.755Z,100850.81
2019-01-24T16:28:49.015Z,100848.98
2019-01-24T16:31:20.556Z,100848.61
2019-01-24T16:33:56.277Z,100841.64
2019-01-24T16:36:27.944Z,100848.84
2019-01-24T16:39:00.555Z,100850.91
2019-01-24T16:41:32.113Z,100853.08
2019-01-24T16:44:03.644Z,100854.60
2019-01-24T16:46:35.006Z,100857.59
2019-01-24T16:49:06.241Z,100860.54
2019-01-24T16:51:41.230Z,100859.48
2019-01-24T16:54:13.851Z,100862.84
2019-01-24T16:56:45.260Z,100861.92
2019-01-24T16:59:16.470Z,100867.45
2019-01-24T17:01:47.865Z,100865.09
2019-01-24T17:04:19.215Z,100865.09
2019-01-24T17:06:50.729Z,100865.33
2019-01-24T17:09:23.417Z,100875.83
2019-01-24T17:11:56.186Z,100880.07
2019-01-24T17:14:32.219Z,100880.44
2019-01-24T17:17:10.788Z,100884.69
2019-01-24T17:19:42.906Z,100892.83
2019-01-24T17:22:14.234Z,100883.11
2019-01-24T17:24:45.880Z,100896.78
2019-01-24T17:27:17.337Z,100895.50
2019-01-24T17:29:48.784Z,100895.32
2019-01-24T17:32:20.141Z,100897.02
2019-01-24T17:34:51.502Z,100894.44
2019-01-24T17:37:22.825Z,100898.30
2019-01-24T17:39:54.357Z,100898.30
2019-01-24T17:42:25.758Z,100899.05
2019-01-24T17:44:57.296Z,100903.32
2019-01-24T17:47:28.784Z,100900.56
2019-01-24T17:50:00.090Z,100908.30
2019-01-24T17:52:31.559Z,100914.75
2019-01-24T17:55:02.912Z,100913.47
2019-01-24T17:57:34.360Z,100912.40
2019-01-24T18:00:08.807Z,100920.91
2019-01-24T18:02:40.154Z,100921.28
2019-01-24T18:05:11.612Z,100923.35
2019-01-24T18:07:42.996Z,100929.43
2019-01-24T18:10:17.537Z,100927.22
2019-01-24T18:12:49.134Z,100930.17
2019-01-24T18:15:26.690Z,100927.45
2019-01-24T18:17:58.034Z,100943.30
2019-01-24T18:20:35.425Z,100935.55
2019-01-24T18:23:06.874Z,100943.84
2019-01-24T18:25:38.316Z,100932.47
2019-01-24T18:28:11.209Z,100943.84
2019-01-24T18:30:44.287Z,100944.22
2019-01-24T18:33:15.701Z,100945.36
2019-01-24T18:35:46.931Z,100951.26
2019-01-24T18:38:18.179Z,100957.70
2019-01-24T18:40:49.644Z,100959.41
2019-01-24T18:43:26.095Z,100961.58
2019-01-24T18:45:59.862Z,100958.48
2019-01-24T18:48:31.065Z,100964.16
2019-01-24T18:51:02.303Z,100962.50
2019-01-24T18:53:33.500Z,100963.64
2019-01-24T18:56:04.830Z,100969.31
2019-01-24T18:58:36.072Z,100966.73
2019-01-24T19:01:07.420Z,100973.73
2019-01-24T19:03:38.747Z,100981.47
2019-01-24T19:06:10.107Z,100981.84
2019-01-24T19:08:49.713Z,100976.91
2019-01-24T19:11:21.274Z,100986.48
2019-01-24T19:13:52.687Z,100987.38
2019-01-24T19:16:24.005Z,100983.36
2019-01-24T19:18:55.200Z,100987.23
2019-01-24T19:21:26.526Z,100983.73
2019-01-24T19:23:57.968Z,100985.42
2019-01-24T19:26:29.274Z,100985.02
2019-01-24T19:29:00.769Z,100988.89
2019-01-24T19:31:32.086Z,100991.09
2019-01-24T19:34:03.409Z,100991.47
2019-01-24T19:36:34.685Z,100992.02
2019-01-24T19:39:08.828Z,100987.59
2019-01-24T19:41:40.316Z,100987.59
2019-01-24T19:44:15.613Z,100995.74
2019-01-24T19:46:46.226Z,100993.67
2019-01-24T19:49:18.920Z,100996.25
2019-01-24T19:51:50.156Z,100995.89
2019-01-24T19:54:22.786Z,100989.66
2019-01-24T19:56:54.565Z,100990.95
2019-01-24T19:59:29.200Z,100995.74
2019-01-24T20:02:00.535Z,100998.17
2019-01-24T20:04:31.701Z,101002.05
2019-01-24T20:07:02.921Z,101003.33
2019-01-24T20:09:34.264Z,101007.94
2019-01-24T20:12:05.842Z,101009.23
2019-01-24T20:14:37.102Z,101011.81
2019-01-24T20:17:08.431Z,101004.84
2019-01-24T20:19:39.850Z,101007.42
2019-01-24T20:22:11.087Z,101010.52
2019-01-24T20:24:42.488Z,101004.84
2019-01-24T20:27:13.744Z,101009.23
2019-01-24T20:29:45.206Z,101006.28
2019-01-24T20:32:17.552Z,101009.23
2019-01-24T20:34:48.819Z,101013.09
2019-01-24T20:37:20.158Z,101017.34
2019-01-24T20:39:51.381Z,101014.76
2019-01-24T20:42:22.666Z,101016.05
2019-01-24T20:44:54.098Z,101024.19
2019-01-24T20:47:25.179Z,101022.34
2019-01-24T20:49:56.403Z,101018.84
2019-01-24T20:52:27.750Z,101027.51
2019-01-24T20:54:59.141Z,101025.70
2019-01-24T20:57:32.573Z,101023.48
2019-01-24T21:00:05.966Z,101031.08
2019-01-24T21:02:37.503Z,101023.34
2019-01-24T21:05:09.921Z,101029.42
2019-01-24T21:07:41.415Z,101027.06
2019-01-24T21:10:18.615Z,101032.59
2019-01-24T21:12:52.975Z,101035.39
2019-01-24T21:15:28.151Z,101028.95
2019-01-24T21:18:01.810Z,101028.95
2019-01-24T21:20:43.304Z,101032.45
2019-01-24T21:23:18.175Z,101029.72
2019-01-24T21:25:50.152Z,101030.23
2019-01-24T21:28:21.631Z,101032.81
2019-01-24T21:30:53.195Z,101037.45
2019-01-24T21:33:24.510Z,101040.92
2019-01-24T21:35:58.299Z,101043.35
2019-01-24T21:38:29.626Z,101035.62
2019-01-24T21:41:01.699Z,101032.52
2019-01-24T21:43:33.039Z,101035.62
2019-01-24T21:46:04.772Z,101040.03
2019-01-24T21:48:38.626Z,101047.77
2019-01-24T21:51:11.295Z,101049.80
2019-01-24T21:53:42.782Z,101047.22
2019-01-24T21:56:14.124Z,101040.63
2019-01-24T21:58:47.323Z,101039.70
2019-01-24T22:01:20.016Z,101045.41
2019-01-24T22:03:54.810Z,101035.84
2019-01-24T22:06:45.799Z,101034.55
2019-01-24T22:09:17.443Z,101037.13
2019-01-24T22:11:49.225Z,101042.28
2019-01-24T22:14:22.935Z,101045.27
2019-01-24T22:16:56.307Z,101042.69
2019-01-24T22:19:27.562Z,101044.34
2019-01-24T22:22:00.884Z,101048.95
2019-01-24T22:24:34.053Z,101044.34
2019-01-24T22:27:05.457Z,101041.22
2019-01-24T22:29:36.792Z,101038.64
2019-01-24T22:32:10.831Z,101041.22
2019-01-24T22:34:49.622Z,101042.50
2019-01-24T22:37:20.856Z,101039.55
2019-01-24T22:39:52.250Z,101029.61
2019-01-24T22:42:23.719Z,101039.04
2019-01-24T22:44:57.180Z,101034.25
2019-01-24T22:47:33.644Z,101037.20
2019-01-24T22:50:09.503Z,101041.29
2019-01-24T22:52:43.058Z,101041.06
2019-01-24T22:55:18.814Z,101039.78
2019-01-24T22:57:50.294Z,101038.13
2019-01-24T23:00:49.158Z,101038.86
2019-01-24T23:03:43.793Z,101037.97
2019-01-24T23:06:15.548Z,101043.86
2019-01-24T23:08:48.016Z,101035.06
2019-01-24T23:11:21.358Z,101042.43
2019-01-24T23:13:52.911Z,101037.27
2019-01-24T23:16:26.346Z,101032.34
2019-01-24T23:18:57.789Z,101034.17
2019-01-24T23:21:29.139Z,101031.82
2019-01-24T23:24:00.424Z,101040.29
2019-01-24T23:26:34.306Z,101036.27
2019-01-24T23:29:06.296Z,101038.33
2019-01-24T23:31:40.264Z,101038.70
2019-01-24T23:34:11.711Z,101040.73
2019-01-24T23:36:45.828Z,101035.42
2019-01-24T23:39:17.495Z,101030.67
2019-01-24T23:41:50.532Z,101038.62
2019-01-24T23:44:21.881Z,101034.76
2019-01-24T23:46:57.634Z,101041.20
2019-01-24T23:49:28.928Z,101040.66
2019-01-24T23:52:02.677Z,101038.84
2019-01-24T23:54:34.984Z,101037.00
2019-01-24T23:57:06.334Z,101038.70
2019-01-24T23:59:37.744Z,101034.28
